createdAt,value
2018-06-08T00:01:34.604Z,97666.59
2018-06-08T00:04:02.139Z,97669.19
2018-06-08T00:06:29.699Z,97672.23
2018-06-08T00:08:57.247Z,97663.38
2018-06-08T00:11:24.811Z,97669.14
2018-06-08T00:13:52.386Z,97667.29
2018-06-08T00:16:19.944Z,97665.69
2018-06-08T00:18:47.478Z,97659.73
2018-06-08T00:21:15.102Z,97668.51
2018-06-08T00:23:42.653Z,97667.20
2018-06-08T00:26:10.198Z,97662.98
2018-06-08T00:28:37.810Z,97666.36
2018-06-08T00:31:05.347Z,97661.72
2018-06-08T00:33:32.901Z,97666.89
2018-06-08T00:36:00.471Z,97653.16
2018-06-08T00:38:28.035Z,97659.87
2018-06-08T00:40:55.559Z,97661.19
2018-06-08T00:43:23.102Z,97654.92
2018-06-08T00:45:50.674Z,97656.34
2018-06-08T00:48:18.215Z,97650.92
2018-06-08T00:50:52.427Z,97656.09
2018-06-08T00:53:19.979Z,97655.56
2018-06-08T00:55:47.535Z,97653.09
2018-06-08T00:58:15.059Z,97647.47
2018-06-08T01:00:42.627Z,97649.64
2018-06-08T01:03:10.188Z,97641.97
2018-06-08T01:05:37.725Z,97641.20
2018-06-08T01:08:05.302Z,97642.83
2018-06-08T01:10:32.818Z,97648.99
2018-06-08T01:13:00.395Z,97648.99
2018-06-08T01:15:28.015Z,97645.00
2018-06-08T01:17:55.561Z,97648.45
2018-06-08T01:20:23.095Z,97644.55
2018-06-08T01:22:50.643Z,97643.37
2018-06-08T01:25:18.179Z,97643.78
2018-06-08T01:27:45.711Z,97643.14
2018-06-08T01:30:13.253Z,97640.13
2018-06-08T01:32:40.796Z,97633.21
2018-06-08T01:35:08.356Z,97634.16
2018-06-08T01:37:35.873Z,97639.25
2018-06-08T01:40:03.466Z,97635.79
2018-06-08T01:42:31.019Z,97634.27
2018-06-08T01:44:58.606Z,97629.63
2018-06-08T01:47:26.159Z,97631.27
2018-06-08T01:49:53.717Z,97626.48
2018-06-08T01:52:21.247Z,97631.25
2018-06-08T01:54:48.815Z,97624.00
2018-06-08T01:57:16.402Z,97622.48
2018-06-08T01:59:43.978Z,97615.80
2018-06-08T02:02:11.540Z,97622.70
2018-06-08T02:04:39.083Z,97622.58
2018-06-08T02:07:06.627Z,97617.38
2018-06-08T02:09:34.174Z,97620.50
2018-06-08T02:12:01.707Z,97615.97
2018-06-08T02:14:29.227Z,97622.64
2018-06-08T02:16:56.746Z,97614.78
2018-06-08T02:19:24.277Z,97615.30
2018-06-08T02:21:51.791Z,97618.31
2018-06-08T02:24:19.357Z,97625.45
2018-06-08T02:26:46.875Z,97626.55
2018-06-08T02:29:14.410Z,97624.16
2018-06-08T02:31:41.940Z,97618.42
2018-06-08T02:34:09.506Z,97622.96
2018-06-08T02:36:37.035Z,97618.33
2018-06-08T02:39:06.970Z,97623.84
2018-06-08T02:41:34.623Z,97626.00
2018-06-08T02:44:02.159Z,97611.95
2018-06-08T02:46:29.696Z,97622.31
2018-06-08T02:48:57.226Z,97622.55
2018-06-08T02:51:24.801Z,97622.96
2018-06-08T02:53:52.322Z,97626.20
2018-06-08T02:56:19.854Z,97625.45
2018-06-08T03:01:21.619Z,97622.73
2018-06-08T03:03:49.173Z,97629.88
2018-06-08T03:06:16.703Z,97621.70
2018-06-08T03:08:44.266Z,97619.43
2018-06-08T03:11:11.794Z,97623.05
2018-06-08T03:13:39.366Z,97629.09
2018-06-08T03:16:06.890Z,97620.77
2018-06-08T03:18:34.409Z,97623.47
2018-06-08T03:21:01.922Z,97629.19
2018-06-08T03:23:29.473Z,97626.38
2018-06-08T03:25:57.006Z,97623.45
2018-06-08T03:28:24.514Z,97623.45
2018-06-08T03:30:52.070Z,97622.50
2018-06-08T03:33:19.594Z,97619.69
2018-06-08T03:35:47.133Z,97618.28
2018-06-08T03:38:14.678Z,97622.50
2018-06-08T03:40:42.237Z,97620.23
2018-06-08T03:43:09.775Z,97614.18
2018-06-08T03:45:37.351Z,97613.84
2018-06-08T03:48:05.124Z,97617.63
2018-06-08T03:50:32.672Z,97620.22
2018-06-08T03:53:00.248Z,97623.14
2018-06-08T03:55:27.765Z,97621.52
2018-06-08T03:57:55.322Z,97622.05
2018-06-08T04:00:22.859Z,97620.88
2018-06-08T04:02:50.421Z,97620.65
2018-06-08T04:05:17.950Z,97622.05
2018-06-08T04:07:45.511Z,97617.53
2018-06-08T04:10:13.018Z,97619.16
2018-06-08T04:12:40.547Z,97621.09
2018-06-08T04:15:08.082Z,97619.16
2018-06-08T04:17:35.606Z,97620.98
2018-06-08T04:20:03.272Z,97624.75
2018-06-08T04:22:30.786Z,97627.14
2018-06-08T04:24:58.376Z,97627.79
2018-06-08T04:27:25.883Z,97619.66
2018-06-08T04:29:53.415Z,97613.61
2018-06-08T04:32:20.937Z,97618.81
2018-06-08T04:34:48.504Z,97619.99
2018-06-08T04:37:16.035Z,97615.77
2018-06-08T04:39:43.560Z,97621.80
2018-06-08T04:42:11.097Z,97623.74
2018-06-08T04:44:38.651Z,97624.39
2018-06-08T04:47:06.239Z,97620.19
2018-06-08T04:49:33.761Z,97627.97
2018-06-08T04:52:01.317Z,97626.97
2018-06-08T04:54:28.854Z,97631.28
2018-06-08T04:56:56.406Z,97626.80
2018-06-08T04:59:23.952Z,97626.66
2018-06-08T05:01:51.474Z,97631.60
2018-06-08T05:04:19.014Z,97625.80
2018-06-08T05:06:46.557Z,97623.14
2018-06-08T05:09:14.078Z,97607.86
2018-06-08T05:11:41.591Z,97615.02
2018-06-08T05:14:09.134Z,97616.06
2018-06-08T05:16:36.644Z,97616.17
2018-06-08T05:19:04.290Z,97607.53
2018-06-08T05:21:32.733Z,97610.49
2018-06-08T05:24:00.504Z,97607.98
2018-06-08T05:26:28.387Z,97613.73
2018-06-08T05:28:56.167Z,97614.21
2018-06-08T05:31:23.693Z,97616.06
2018-06-08T05:33:51.202Z,97612.75
2018-06-08T05:36:18.731Z,97611.56
2018-06-08T05:38:46.238Z,97615.38
2018-06-08T05:41:13.836Z,97619.77
2018-06-08T05:43:41.358Z,97621.71
2018-06-08T05:46:08.878Z,97619.39
2018-06-08T05:48:36.477Z,97623.55
2018-06-08T05:51:03.944Z,97618.29
2018-06-08T05:53:31.602Z,97613.78
2018-06-08T05:55:59.101Z,97606.80
2018-06-08T05:58:26.637Z,97611.64
2018-06-08T06:00:54.161Z,97607.77
2018-06-08T06:03:21.685Z,97603.52
2018-06-08T06:05:49.200Z,97599.93
2018-06-08T06:08:16.698Z,97606.30
2018-06-08T06:10:44.241Z,97609.38
2018-06-08T06:13:11.735Z,97606.00
2018-06-08T06:15:39.310Z,97611.19
2018-06-08T06:18:06.824Z,97611.64
2018-06-08T06:20:34.382Z,97612.25
2018-06-08T06:23:01.923Z,97611.03
2018-06-08T06:25:29.509Z,97613.79
2018-06-08T06:27:57.022Z,97610.88
2018-06-08T06:30:24.549Z,97619.02
2018-06-08T06:32:52.085Z,97615.45
2018-06-08T06:35:19.650Z,97618.00
2018-06-08T06:37:47.222Z,97622.00
2018-06-08T06:40:14.822Z,97617.89
2018-06-08T06:42:42.358Z,97623.67
2018-06-08T06:45:09.907Z,97625.88
2018-06-08T06:47:37.434Z,97629.44
2018-06-08T06:50:05.066Z,97627.69
2018-06-08T06:52:32.610Z,97635.94
2018-06-08T06:55:00.178Z,97638.72
2018-06-08T06:57:27.698Z,97641.10
2018-06-08T06:59:55.244Z,97637.54
2018-06-08T07:02:22.762Z,97637.99
2018-06-08T07:04:50.305Z,97641.50
2018-06-08T07:07:17.818Z,97635.64
2018-06-08T07:09:45.357Z,97632.91
2018-06-08T07:12:14.080Z,97633.45
2018-06-08T07:14:41.621Z,97635.03
2018-06-08T07:17:09.133Z,97639.03
2018-06-08T07:19:36.659Z,97632.64
2018-06-08T07:22:04.207Z,97635.98
2018-06-08T07:24:31.707Z,97635.28
2018-06-08T07:26:59.246Z,97634.17
2018-06-08T07:29:26.773Z,97631.27
2018-06-08T07:31:54.357Z,97625.92
2018-06-08T07:34:21.903Z,97637.19
2018-06-08T07:36:49.450Z,97628.95
2018-06-08T07:39:16.998Z,97634.64
2018-06-08T07:41:44.526Z,97632.95
2018-06-08T07:44:12.078Z,97634.41
2018-06-08T07:46:39.595Z,97633.65
2018-06-08T07:49:07.138Z,97633.13
2018-06-08T07:51:34.658Z,97636.54
2018-06-08T07:54:02.189Z,97638.59
2018-06-08T07:56:29.710Z,97640.19
2018-06-08T07:58:57.237Z,97634.67
2018-06-08T08:01:24.746Z,97639.42
2018-06-08T08:03:52.278Z,97631.78
2018-06-08T08:06:19.794Z,97631.59
2018-06-08T08:08:47.285Z,97637.98
2018-06-08T08:11:14.825Z,97638.81
2018-06-08T08:13:42.327Z,97633.93
2018-06-08T08:16:09.882Z,97635.54
2018-06-08T08:18:37.454Z,97641.48
2018-06-08T08:21:05.036Z,97631.45
2018-06-08T08:23:32.543Z,97632.06
2018-06-08T08:26:00.102Z,97631.72
2018-06-08T08:28:27.603Z,97633.39
2018-06-08T08:30:55.138Z,97630.92
2018-06-08T08:33:22.706Z,97627.91
2018-06-08T08:35:50.223Z,97627.30
2018-06-08T08:38:17.860Z,97630.98
2018-06-08T08:40:45.414Z,97629.29
2018-06-08T08:43:12.974Z,97630.72
2018-06-08T08:45:40.584Z,97624.52
2018-06-08T08:48:08.102Z,97635.31
2018-06-08T08:50:35.626Z,97621.88
2018-06-08T08:53:03.202Z,97629.09
2018-06-08T08:55:30.734Z,97619.55
2018-06-08T08:57:58.255Z,97621.27
2018-06-08T09:00:25.841Z,97614.55
2018-06-08T09:02:53.355Z,97617.64
2018-06-08T09:05:20.914Z,97620.57
2018-06-08T09:07:48.415Z,97621.84
2018-06-08T09:10:15.957Z,97618.02
2018-06-08T09:12:43.467Z,97620.31
2018-06-08T09:15:10.995Z,97617.39
2018-06-08T09:17:38.530Z,97611.08
2018-06-08T09:20:06.074Z,97607.46
2018-06-08T09:22:33.594Z,97600.94
2018-06-08T09:25:01.134Z,97605.97
2018-06-08T09:27:28.678Z,97604.70
2018-06-08T09:29:56.192Z,97603.23
2018-06-08T09:32:23.774Z,97610.67
2018-06-08T09:34:51.823Z,97610.98
2018-06-08T09:37:19.329Z,97606.25
2018-06-08T09:39:46.860Z,97617.92
2018-06-08T09:42:14.361Z,97619.24
2018-06-08T09:44:41.895Z,97617.41
2018-06-08T09:47:09.431Z,97615.63
2018-06-08T09:49:37.017Z,97607.41
2018-06-08T09:52:04.542Z,97608.48
2018-06-08T09:54:32.074Z,97602.56
2018-06-08T09:56:59.584Z,97598.62
2018-06-08T09:59:27.143Z,97604.01
2018-06-08T10:01:54.691Z,97592.08
2018-06-08T10:04:22.287Z,97591.32
2018-06-08T10:06:49.861Z,97586.52
2018-06-08T10:09:17.370Z,97592.99
2018-06-08T10:11:45.866Z,97583.02
2018-06-08T10:14:13.370Z,97584.43
2018-06-08T10:16:40.996Z,97582.44
2018-06-08T10:19:08.470Z,97581.74
2018-06-08T10:21:36.039Z,97574.47
2018-06-08T10:24:03.607Z,97560.98
2018-06-08T10:26:31.121Z,97563.02
2018-06-08T10:28:58.666Z,97553.58
2018-06-08T10:31:26.218Z,97569.28
2018-06-08T10:33:53.758Z,97567.33
2018-06-08T10:36:21.314Z,97569.39
2018-06-08T10:38:48.875Z,97563.57
2018-06-08T10:41:16.386Z,97571.98
2018-06-08T10:43:43.958Z,97566.11
2018-06-08T10:46:11.458Z,97569.64
2018-06-08T10:48:38.998Z,97562.28
2018-06-08T10:51:06.503Z,97564.81
2018-06-08T10:53:34.022Z,97559.77
2018-06-08T10:56:01.566Z,97557.84
2018-06-08T10:58:29.106Z,97548.20
2018-06-08T11:00:56.662Z,97552.86
2018-06-08T11:03:24.174Z,97549.27
2018-06-08T11:05:51.900Z,97547.72
2018-06-08T11:08:19.418Z,97538.04
2018-06-08T11:10:46.978Z,97542.00
2018-06-08T11:13:14.501Z,97532.13
2018-06-08T11:15:42.012Z,97542.42
2018-06-08T11:18:09.545Z,97540.56
2018-06-08T11:20:37.220Z,97537.10
2018-06-08T11:23:04.777Z,97529.38
2018-06-08T11:25:32.330Z,97520.44
2018-06-08T11:27:59.862Z,97526.73
2018-06-08T11:30:27.442Z,97525.55
2018-06-08T11:32:55.002Z,97522.86
2018-06-08T11:35:22.511Z,97519.55
2018-06-08T11:37:50.039Z,97524.39
2018-06-08T11:40:17.553Z,97520.00
2018-06-08T11:42:45.067Z,97517.84
2018-06-08T11:45:12.600Z,97514.70
2018-06-08T11:47:40.118Z,97512.94
2018-06-08T11:50:07.677Z,97514.45
2018-06-08T11:52:35.219Z,97512.97
2018-06-08T11:55:02.775Z,97504.72
2018-06-08T11:57:30.287Z,97506.64
2018-06-08T11:59:57.803Z,97505.11
2018-06-08T12:02:25.354Z,97497.33
2018-06-08T12:04:52.869Z,97499.08
2018-06-08T12:07:20.434Z,97489.48
2018-06-08T12:09:47.955Z,97488.23
2018-06-08T12:12:15.514Z,97480.98
2018-06-08T12:14:43.026Z,97484.52
2018-06-08T12:17:10.615Z,97482.20
2018-06-08T12:19:38.081Z,97471.20
2018-06-08T12:22:05.581Z,97469.57
2018-06-08T12:24:33.098Z,97474.51
2018-06-08T12:27:00.636Z,97472.64
2018-06-08T12:29:28.225Z,97474.33
2018-06-08T12:31:55.725Z,97466.36
2018-06-08T12:34:23.258Z,97460.69
2018-06-08T12:36:50.757Z,97460.25
2018-06-08T12:39:18.298Z,97468.70
2018-06-08T12:41:45.830Z,97468.61
2018-06-08T12:44:13.357Z,97466.88
2018-06-08T12:46:40.854Z,97462.72
2018-06-08T12:49:08.379Z,97459.31
2018-06-08T12:51:35.906Z,97459.31
2018-06-08T12:54:03.444Z,97460.77
2018-06-08T12:56:31.013Z,97457.42
2018-06-08T12:58:58.514Z,97458.85
2018-06-08T13:01:26.055Z,97458.17
2018-06-08T13:03:53.586Z,97452.55
2018-06-08T13:06:21.141Z,97452.52
2018-06-08T13:08:48.652Z,97451.61
2018-06-08T13:11:16.210Z,97450.19
2018-06-08T13:13:43.766Z,97449.78
2018-06-08T13:16:11.296Z,97447.96
2018-06-08T13:18:38.828Z,97447.97
2018-06-08T13:21:06.362Z,97438.13
2018-06-08T13:23:33.904Z,97437.25
2018-06-08T13:26:01.433Z,97432.57
2018-06-08T13:28:28.994Z,97435.95
2018-06-08T13:30:56.534Z,97437.77
2018-06-08T13:33:24.039Z,97435.59
2018-06-08T13:35:51.579Z,97441.67
2018-06-08T13:38:19.107Z,97434.74
2018-06-08T13:40:46.654Z,97432.45
2018-06-08T13:43:14.166Z,97430.73
2018-06-08T13:45:41.692Z,97435.80
2018-06-08T13:48:09.206Z,97423.30
2018-06-08T13:50:36.719Z,97413.12
2018-06-08T13:53:04.670Z,97408.87
2018-06-08T13:55:32.410Z,97409.86
2018-06-08T13:57:59.962Z,97414.86
2018-06-08T14:00:27.611Z,97413.94
2018-06-08T14:02:55.269Z,97401.86
2018-06-08T14:05:22.784Z,97400.98
2018-06-08T14:07:50.311Z,97403.00
2018-06-08T14:10:17.871Z,97398.23
2018-06-08T14:12:46.505Z,97399.08
2018-06-08T14:15:14.061Z,97395.97
2018-06-08T14:17:41.718Z,97394.83
2018-06-08T14:20:09.262Z,97392.50
2018-06-08T14:22:36.786Z,97395.59
2018-06-08T14:25:04.350Z,97387.98
2018-06-08T14:27:31.902Z,97383.30
2018-06-08T14:29:59.460Z,97380.27
2018-06-08T14:32:26.972Z,97377.57
2018-06-08T14:34:54.626Z,97370.27
2018-06-08T14:37:22.130Z,97372.34
2018-06-08T14:39:49.662Z,97369.00
2018-06-08T14:42:17.190Z,97365.09
2018-06-08T14:44:44.762Z,97362.97
2018-06-08T14:47:12.478Z,97355.91
2018-06-08T14:49:39.962Z,97355.17
2018-06-08T14:52:07.523Z,97354.69
2018-06-08T14:54:35.031Z,97352.83
2018-06-08T14:57:02.562Z,97360.96
2018-06-08T14:59:30.071Z,97360.52
2018-06-08T15:01:57.694Z,97356.11
2018-06-08T15:04:25.308Z,97344.92
2018-06-08T15:06:52.998Z,97342.88
2018-06-08T15:09:21.530Z,97340.67
2018-06-08T15:11:49.267Z,97339.66
2018-06-08T15:14:17.030Z,97343.87
2018-06-08T15:16:44.835Z,97345.55
2018-06-08T15:19:12.560Z,97338.95
2018-06-08T15:21:40.310Z,97340.91
2018-06-08T15:24:08.947Z,97336.25
2018-06-08T15:26:36.574Z,97339.17
2018-06-08T15:29:04.585Z,97328.58
2018-06-08T15:31:32.322Z,97335.50
2018-06-08T15:33:59.913Z,97340.64
2018-06-08T15:36:27.572Z,97338.86
2018-06-08T15:38:55.135Z,97341.97
2018-06-08T15:41:22.706Z,97338.34
2018-06-08T15:43:50.480Z,97329.77
2018-06-08T15:46:18.026Z,97329.47
2018-06-08T15:48:46.051Z,97320.83
2018-06-08T15:51:13.686Z,97317.55
2018-06-08T15:53:41.294Z,97323.81
2018-06-08T15:56:08.809Z,97319.06
2018-06-08T15:58:36.370Z,97309.34
2018-06-08T16:01:04.079Z,97311.17
2018-06-08T16:03:31.850Z,97309.50
2018-06-08T16:05:59.537Z,97313.83
2018-06-08T16:08:27.206Z,97323.30
2018-06-08T16:10:54.951Z,97316.13
2018-06-08T16:13:22.669Z,97325.95
2018-06-08T16:15:50.310Z,97318.59
2018-06-08T16:18:17.953Z,97319.89
2018-06-08T16:20:45.474Z,97324.71
2018-06-08T16:23:13.025Z,97323.63
2018-06-08T16:25:40.618Z,97318.21
2018-06-08T16:28:08.302Z,97322.54
2018-06-08T16:30:36.093Z,97316.88
2018-06-08T16:33:04.015Z,97309.98
2018-06-08T16:35:32.225Z,97313.19
2018-06-08T16:37:59.858Z,97313.66
2018-06-08T16:40:27.617Z,97321.08
2018-06-08T16:42:55.235Z,97319.73
2018-06-08T16:45:22.902Z,97317.69
2018-06-08T16:47:50.491Z,97308.94
2018-06-08T16:50:18.042Z,97312.52
2018-06-08T16:52:45.578Z,97309.66
2018-06-08T16:55:13.143Z,97316.59
2018-06-08T16:57:40.754Z,97310.24
2018-06-08T17:00:08.327Z,97311.20
2018-06-08T17:02:35.890Z,97313.98
2018-06-08T17:05:03.688Z,97310.86
2018-06-08T17:07:31.333Z,97316.11
2018-06-08T17:09:58.974Z,97308.13
2018-06-08T17:12:26.520Z,97313.50
2018-06-08T17:14:54.174Z,97317.63
2018-06-08T17:17:21.705Z,97321.51
2018-06-08T17:19:49.342Z,97321.53
2018-06-08T17:22:16.901Z,97323.03
2018-06-08T17:24:44.394Z,97320.88
2018-06-08T17:27:11.986Z,97328.03
2018-06-08T17:29:39.558Z,97327.98
2018-06-08T17:32:07.102Z,97324.58
2018-06-08T17:34:35.272Z,97324.98
2018-06-08T17:37:03.153Z,97325.91
2018-06-08T17:39:30.736Z,97329.14
2018-06-08T17:41:58.307Z,97319.55
2018-06-08T17:44:26.075Z,97326.88
2018-06-08T17:46:53.762Z,97326.36
2018-06-08T17:49:21.421Z,97329.34
2018-06-08T17:51:49.119Z,97326.70
2018-06-08T17:54:17.021Z,97323.25
2018-06-08T17:56:45.187Z,97326.87
2018-06-08T17:59:12.866Z,97323.62
2018-06-08T18:01:40.578Z,97322.30
2018-06-08T18:04:08.245Z,97327.00
2018-06-08T18:06:35.928Z,97331.02
2018-06-08T18:09:05.217Z,97335.58
2018-06-08T18:11:32.849Z,97333.87
2018-06-08T18:14:00.663Z,97340.00
2018-06-08T18:16:28.286Z,97339.30
2018-06-08T18:18:55.994Z,97341.67
2018-06-08T18:21:23.873Z,97344.20
2018-06-08T18:23:51.616Z,97337.75
2018-06-08T18:26:19.257Z,97334.56
2018-06-08T18:28:46.900Z,97337.27
2018-06-08T18:31:14.653Z,97340.45
2018-06-08T18:33:42.617Z,97341.53
2018-06-08T18:36:10.246Z,97347.57
2018-06-08T18:38:37.834Z,97347.50
2018-06-08T18:41:05.523Z,97351.50
2018-06-08T18:43:33.249Z,97352.08
2018-06-08T18:46:01.085Z,97346.03
2018-06-08T18:48:28.679Z,97348.80
2018-06-08T18:50:56.433Z,97347.71
2018-06-08T18:53:24.119Z,97350.48
2018-06-08T18:55:51.875Z,97349.54
2018-06-08T18:58:19.549Z,97355.77
2018-06-08T19:00:47.265Z,97356.16
2018-06-08T19:03:15.121Z,97355.94
2018-06-08T19:05:42.726Z,97363.94
2018-06-08T19:08:10.338Z,97359.31
2018-06-08T19:10:38.058Z,97360.98
2018-06-08T19:13:05.602Z,97367.79
2018-06-08T19:15:33.126Z,97366.09
2018-06-08T19:18:00.695Z,97372.31
2018-06-08T19:20:28.258Z,97370.61
2018-06-08T19:22:55.823Z,97384.24
2018-06-08T19:25:23.341Z,97379.77
2018-06-08T19:27:50.958Z,97379.25
2018-06-08T19:30:18.470Z,97387.34
2018-06-08T19:32:46.003Z,97391.09
2018-06-08T19:35:13.648Z,97391.18
2018-06-08T19:37:41.158Z,97384.02
2018-06-08T19:40:08.725Z,97386.41
2018-06-08T19:42:36.254Z,97389.34
2018-06-08T19:45:03.986Z,97386.85
2018-06-08T19:47:31.681Z,97387.30
2018-06-08T19:49:59.209Z,97394.33
2018-06-08T19:52:26.802Z,97401.73
2018-06-08T19:54:54.342Z,97405.53
2018-06-08T19:57:21.883Z,97396.46
2018-06-08T19:59:49.398Z,97404.27
2018-06-08T20:02:16.950Z,97399.02
2018-06-08T20:04:44.450Z,97402.05
2018-06-08T20:07:12.018Z,97405.27
2018-06-08T20:09:39.526Z,97399.36
2018-06-08T20:12:07.069Z,97398.22
2018-06-08T20:14:34.573Z,97385.72
2018-06-08T20:17:02.351Z,97392.40
2018-06-08T20:19:29.905Z,97397.58
2018-06-08T20:21:57.405Z,97396.16
2018-06-08T20:24:24.982Z,97391.40
2018-06-08T20:26:52.497Z,97392.01
2018-06-08T20:29:20.759Z,97386.61
2018-06-08T20:31:48.266Z,97381.38
2018-06-08T20:34:15.821Z,97375.44
2018-06-08T20:36:43.389Z,97381.56
2018-06-08T20:39:10.925Z,97374.20
2018-06-08T20:41:38.465Z,97378.24
2018-06-08T20:44:06.023Z,97380.64
2018-06-08T20:46:33.546Z,97381.50
2018-06-08T20:49:01.155Z,97380.66
2018-06-08T20:51:28.688Z,97375.56
2018-06-08T20:53:56.209Z,97383.24
2018-06-08T20:56:23.864Z,97381.33
2018-06-08T20:58:51.944Z,97385.41
2018-06-08T21:01:19.463Z,97381.59
2018-06-08T21:03:47.038Z,97381.20
2018-06-08T21:06:14.606Z,97380.59
2018-06-08T21:08:42.170Z,97381.52
2018-06-08T21:11:09.721Z,97383.20
2018-06-08T21:13:37.271Z,97379.05
2018-06-08T21:16:04.818Z,97381.25
2018-06-08T21:18:32.359Z,97373.63
2018-06-08T21:20:59.898Z,97386.84
2018-06-08T21:23:27.446Z,97377.98
2018-06-08T21:25:55.527Z,97373.45
2018-06-08T21:28:23.065Z,97374.13
2018-06-08T21:30:50.580Z,97376.95
2018-06-08T21:33:18.142Z,97369.63
2018-06-08T21:35:45.997Z,97374.95
2018-06-08T21:38:13.503Z,97368.84
2018-06-08T21:40:41.022Z,97375.70
2018-06-08T21:43:08.579Z,97374.38
2018-06-08T21:45:36.095Z,97375.45
2018-06-08T21:48:03.667Z,97370.44
2018-06-08T21:50:31.198Z,97374.39
2018-06-08T21:52:58.777Z,97366.58
2018-06-08T21:55:26.802Z,97367.33
2018-06-08T21:57:54.337Z,97371.90
2018-06-08T22:00:21.945Z,97376.39
2018-06-08T22:02:49.466Z,97375.31
2018-06-08T22:05:17.027Z,97379.92
2018-06-08T22:07:44.540Z,97377.93
2018-06-08T22:10:12.099Z,97377.61
2018-06-08T22:12:39.672Z,97381.87
2018-06-08T22:15:07.240Z,97380.53
2018-06-08T22:17:34.746Z,97375.70
2018-06-08T22:20:02.303Z,97367.68
2018-06-08T22:22:29.850Z,97361.69
2018-06-08T22:24:57.438Z,97359.45
2018-06-08T22:27:24.970Z,97355.36
2018-06-08T22:29:52.484Z,97357.03
2018-06-08T22:32:20.084Z,97356.10
2018-06-08T22:34:47.603Z,97353.03
2018-06-08T22:37:15.146Z,97349.51
2018-06-08T22:39:42.689Z,97351.77
2018-06-08T22:42:10.266Z,97342.76
2018-06-08T22:44:37.808Z,97351.02
2018-06-08T22:47:05.354Z,97344.17
2018-06-08T22:49:32.869Z,97345.36
2018-06-08T22:52:00.393Z,97348.02
2018-06-08T22:54:27.923Z,97348.53
2018-06-08T22:56:55.429Z,97343.67
2018-06-08T22:59:22.974Z,97344.59
2018-06-08T23:01:50.509Z,97342.84
2018-06-08T23:04:18.061Z,97346.47
2018-06-08T23:06:45.574Z,97344.20
2018-06-08T23:09:13.097Z,97350.63
2018-06-08T23:11:40.631Z,97359.45
2018-06-08T23:14:08.156Z,97362.45
2018-06-08T23:16:35.702Z,97359.45
2018-06-08T23:19:03.236Z,97361.63
2018-06-08T23:21:30.814Z,97356.45
2018-06-08T23:23:58.322Z,97366.84
2018-06-08T23:26:25.860Z,97368.44
2018-06-08T23:28:53.381Z,97374.77
2018-06-08T23:31:20.895Z,97377.84
2018-06-08T23:33:48.426Z,97377.66
2018-06-08T23:36:15.954Z,97369.76
2018-06-08T23:38:43.495Z,97376.84
2018-06-08T23:41:11.005Z,97368.34
2018-06-08T23:43:38.532Z,97373.41
2018-06-08T23:46:06.058Z,97365.00
2018-06-08T23:48:33.586Z,97372.59
2018-06-08T23:51:01.107Z,97373.91
2018-06-08T23:53:28.637Z,97370.48
2018-06-08T23:55:56.223Z,97372.97
2018-06-08T23:58:23.740Z,97381.47
